sensor_id;sensor_type;location;lat;lon;timestamp;P1;durP1;ratioP1;P2;durP2;ratioP2
41739;SDS011;27422;52.444;13.300;2023-03-16T00:01:37;6.25;;;1.85;;
41739;SDS011;27422;52.444;13.300;2023-03-16T00:04:02;5.47;;;2.10;;
41739;SDS011;27422;52.444;13.300;2023-03-16T00:06:28;6.90;;;2.22;;
41739;SDS011;27422;52.444;13.300;2023-03-16T00:09:13;7.00;;;2.13;;
41739;SDS011;27422;52.444;13.300;2023-03-16T00:11:39;4.35;;;1.98;;
41739;SDS011;27422;52.444;13.300;2023-03-16T00:14:04;6.35;;;2.30;;
41739;SDS011;27422;52.444;13.300;2023-03-16T00:16:30;4.20;;;2.00;;
41739;SDS011;27422;52.444;13.300;2023-03-16T00:18:56;5.70;;;2.28;;
41739;SDS011;27422;52.444;13.300;2023-03-16T00:21:23;5.47;;;2.15;;
41739;SDS011;27422;52.444;13.300;2023-03-16T00:23:48;9.73;;;2.25;;
41739;SDS011;27422;52.444;13.300;2023-03-16T00:26:14;5.25;;;1.75;;
41739;SDS011;27422;52.444;13.300;2023-03-16T00:28:39;4.45;;;1.95;;
41739;SDS011;27422;52.444;13.300;2023-03-16T00:31:07;4.13;;;1.90;;
41739;SDS011;27422;52.444;13.300;2023-03-16T00:33:36;7.25;;;1.80;;
41739;SDS011;27422;52.444;13.300;2023-03-16T00:36:02;5.18;;;2.08;;
41739;SDS011;27422;52.444;13.300;2023-03-16T00:38:30;7.83;;;2.23;;
41739;SDS011;27422;52.444;13.300;2023-03-16T00:43:22;6.13;;;1.80;;
41739;SDS011;27422;52.444;13.300;2023-03-16T00:45:47;5.13;;;2.22;;
41739;SDS011;27422;52.444;13.300;2023-03-16T00:48:12;8.88;;;1.92;;
41739;SDS011;27422;52.444;13.300;2023-03-16T00:50:38;6.32;;;1.90;;
41739;SDS011;27422;52.444;13.300;2023-03-16T00:53:03;6.70;;;1.75;;
41739;SDS011;27422;52.444;13.300;2023-03-16T00:55:30;6.20;;;1.73;;
41739;SDS011;27422;52.444;13.300;2023-03-16T00:57:56;6.07;;;2.00;;
41739;SDS011;27422;52.444;13.300;2023-03-16T01:00:21;5.55;;;1.75;;
41739;SDS011;27422;52.444;13.300;2023-03-16T01:02:50;7.60;;;1.90;;
41739;SDS011;27422;52.444;13.300;2023-03-16T01:05:16;4.10;;;1.80;;
41739;SDS011;27422;52.444;13.300;2023-03-16T01:07:41;5.57;;;1.95;;
41739;SDS011;27422;52.444;13.300;2023-03-16T01:10:09;5.88;;;2.10;;
41739;SDS011;27422;52.444;13.300;2023-03-16T01:12:35;6.10;;;2.22;;
41739;SDS011;27422;52.444;13.300;2023-03-16T01:15:00;7.13;;;2.47;;
41739;SDS011;27422;52.444;13.300;2023-03-16T01:17:26;3.80;;;1.92;;
41739;SDS011;27422;52.444;13.300;2023-03-16T01:19:51;4.78;;;2.10;;
41739;SDS011;27422;52.444;13.300;2023-03-16T01:22:17;4.03;;;1.77;;
41739;SDS011;27422;52.444;13.300;2023-03-16T01:24:43;6.15;;;1.83;;
41739;SDS011;27422;52.444;13.300;2023-03-16T01:27:09;5.45;;;1.92;;
41739;SDS011;27422;52.444;13.300;2023-03-16T01:29:36;6.95;;;2.00;;
41739;SDS011;27422;52.444;13.300;2023-03-16T01:32:01;5.40;;;2.05;;
41739;SDS011;27422;52.444;13.300;2023-03-16T01:34:28;5.38;;;1.98;;
41739;SDS011;27422;52.444;13.300;2023-03-16T01:36:54;5.50;;;2.00;;
41739;SDS011;27422;52.444;13.300;2023-03-16T01:39:19;6.32;;;2.05;;
41739;SDS011;27422;52.444;13.300;2023-03-16T01:41:45;4.95;;;1.95;;
41739;SDS011;27422;52.444;13.300;2023-03-16T01:44:12;4.95;;;2.00;;
41739;SDS011;27422;52.444;13.300;2023-03-16T01:46:46;4.30;;;1.80;;
41739;SDS011;27422;52.444;13.300;2023-03-16T01:49:30;5.25;;;1.95;;
41739;SDS011;27422;52.444;13.300;2023-03-16T01:51:59;6.60;;;2.07;;
41739;SDS011;27422;52.444;13.300;2023-03-16T01:54:39;5.25;;;2.13;;
41739;SDS011;27422;52.444;13.300;2023-03-16T01:59:42;7.60;;;1.77;;
41739;SDS011;27422;52.444;13.300;2023-03-16T02:02:10;5.85;;;1.90;;
41739;SDS011;27422;52.444;13.300;2023-03-16T02:07:26;8.18;;;1.77;;
41739;SDS011;27422;52.444;13.300;2023-03-16T02:09:53;5.63;;;1.70;;
41739;SDS011;27422;52.444;13.300;2023-03-16T02:12:22;3.80;;;1.80;;
41739;SDS011;27422;52.444;13.300;2023-03-16T02:14:48;5.35;;;1.83;;
41739;SDS011;27422;52.444;13.300;2023-03-16T02:17:15;3.83;;;1.60;;
41739;SDS011;27422;52.444;13.300;2023-03-16T02:22:07;5.72;;;1.40;;
41739;SDS011;27422;52.444;13.300;2023-03-16T02:24:37;5.35;;;1.98;;
41739;SDS011;27422;52.444;13.300;2023-03-16T02:27:07;4.05;;;1.65;;
41739;SDS011;27422;52.444;13.300;2023-03-16T02:32:22;4.68;;;1.80;;
41739;SDS011;27422;52.444;13.300;2023-03-16T02:34:48;6.03;;;1.90;;
41739;SDS011;27422;52.444;13.300;2023-03-16T02:37:14;4.03;;;1.90;;
41739;SDS011;27422;52.444;13.300;2023-03-16T02:39:39;3.83;;;2.00;;
41739;SDS011;27422;52.444;13.300;2023-03-16T02:42:09;4.03;;;1.70;;
41739;SDS011;27422;52.444;13.300;2023-03-16T02:44:36;4.55;;;2.00;;
41739;SDS011;27422;52.444;13.300;2023-03-16T02:47:06;7.55;;;2.15;;
41739;SDS011;27422;52.444;13.300;2023-03-16T02:49:36;6.32;;;1.92;;
41739;SDS011;27422;52.444;13.300;2023-03-16T02:54:31;6.63;;;1.88;;
41739;SDS011;27422;52.444;13.300;2023-03-16T02:56:56;5.80;;;2.10;;
41739;SDS011;27422;52.444;13.300;2023-03-16T02:59:22;11.85;;;2.17;;
41739;SDS011;27422;52.444;13.300;2023-03-16T03:01:47;4.75;;;1.95;;
41739;SDS011;27422;52.444;13.300;2023-03-16T03:04:13;6.43;;;2.22;;
41739;SDS011;27422;52.444;13.300;2023-03-16T03:06:38;5.45;;;1.98;;
41739;SDS011;27422;52.444;13.300;2023-03-16T03:09:04;5.90;;;2.15;;
41739;SDS011;27422;52.444;13.300;2023-03-16T03:11:30;7.45;;;2.35;;
41739;SDS011;27422;52.444;13.300;2023-03-16T03:13:55;4.18;;;2.15;;
41739;SDS011;27422;52.444;13.300;2023-03-16T03:16:21;5.88;;;2.35;;
41739;SDS011;27422;52.444;13.300;2023-03-16T03:18:47;5.55;;;2.25;;
41739;SDS011;27422;52.444;13.300;2023-03-16T03:21:12;8.93;;;2.38;;
41739;SDS011;27422;52.444;13.300;2023-03-16T03:23:38;8.02;;;3.10;;
41739;SDS011;27422;52.444;13.300;2023-03-16T03:26:04;8.10;;;2.47;;
41739;SDS011;27422;52.444;13.300;2023-03-16T03:28:30;8.32;;;2.72;;
41739;SDS011;27422;52.444;13.300;2023-03-16T03:30:58;6.10;;;2.45;;
41739;SDS011;27422;52.444;13.300;2023-03-16T03:33:24;5.07;;;2.70;;
41739;SDS011;27422;52.444;13.300;2023-03-16T03:35:53;7.10;;;2.85;;
41739;SDS011;27422;52.444;13.300;2023-03-16T03:38:23;4.80;;;2.75;;
41739;SDS011;27422;52.444;13.300;2023-03-16T03:40:49;6.43;;;3.10;;
41739;SDS011;27422;52.444;13.300;2023-03-16T03:43:15;7.90;;;2.50;;
41739;SDS011;27422;52.444;13.300;2023-03-16T03:45:41;7.18;;;2.95;;
41739;SDS011;27422;52.444;13.300;2023-03-16T03:48:06;8.77;;;2.95;;
41739;SDS011;27422;52.444;13.300;2023-03-16T03:50:32;5.00;;;2.80;;
41739;SDS011;27422;52.444;13.300;2023-03-16T03:52:57;7.07;;;2.78;;
41739;SDS011;27422;52.444;13.300;2023-03-16T03:55:22;6.72;;;3.05;;
41739;SDS011;27422;52.444;13.300;2023-03-16T03:57:48;6.10;;;2.95;;
41739;SDS011;27422;52.444;13.300;2023-03-16T04:00:13;9.90;;;3.08;;
41739;SDS011;27422;52.444;13.300;2023-03-16T04:02:39;6.25;;;2.58;;
41739;SDS011;27422;52.444;13.300;2023-03-16T04:05:05;6.68;;;3.00;;
41739;SDS011;27422;52.444;13.300;2023-03-16T04:07:31;5.70;;;2.70;;
41739;SDS011;27422;52.444;13.300;2023-03-16T04:09:56;7.60;;;3.40;;
41739;SDS011;27422;52.444;13.300;2023-03-16T04:12:22;8.57;;;2.70;;
41739;SDS011;27422;52.444;13.300;2023-03-16T04:14:47;7.43;;;2.58;;
41739;SDS011;27422;52.444;13.300;2023-03-16T04:17:13;7.60;;;2.55;;
41739;SDS011;27422;52.444;13.300;2023-03-16T04:19:38;4.18;;;2.42;;
41739;SDS011;27422;52.444;13.300;2023-03-16T04:22:04;9.13;;;2.85;;
41739;SDS011;27422;52.444;13.300;2023-03-16T04:24:31;6.82;;;2.60;;
41739;SDS011;27422;52.444;13.300;2023-03-16T04:26:58;7.53;;;3.10;;
41739;SDS011;27422;52.444;13.300;2023-03-16T04:29:25;8.55;;;2.58;;
41739;SDS011;27422;52.444;13.300;2023-03-16T04:31:50;7.78;;;2.90;;
41739;SDS011;27422;52.444;13.300;2023-03-16T04:34:17;5.57;;;2.30;;
41739;SDS011;27422;52.444;13.300;2023-03-16T04:36:43;6.93;;;2.50;;
41739;SDS011;27422;52.444;13.300;2023-03-16T04:39:09;5.20;;;2.38;;
41739;SDS011;27422;52.444;13.300;2023-03-16T04:41:34;8.60;;;2.75;;
41739;SDS011;27422;52.444;13.300;2023-03-16T04:44:00;7.25;;;2.22;;
41739;SDS011;27422;52.444;13.300;2023-03-16T04:46:25;5.43;;;2.53;;
41739;SDS011;27422;52.444;13.300;2023-03-16T04:48:51;6.22;;;2.60;;
41739;SDS011;27422;52.444;13.300;2023-03-16T04:51:17;8.80;;;2.55;;
41739;SDS011;27422;52.444;13.300;2023-03-16T04:53:42;6.47;;;2.38;;
41739;SDS011;27422;52.444;13.300;2023-03-16T04:56:08;6.05;;;2.63;;
41739;SDS011;27422;52.444;13.300;2023-03-16T04:58:42;7.00;;;2.80;;
41739;SDS011;27422;52.444;13.300;2023-03-16T05:01:07;5.63;;;2.53;;
41739;SDS011;27422;52.444;13.300;2023-03-16T05:03:33;5.90;;;2.63;;
41739;SDS011;27422;52.444;13.300;2023-03-16T05:05:59;8.30;;;2.55;;
41739;SDS011;27422;52.444;13.300;2023-03-16T05:08:25;5.97;;;2.55;;
41739;SDS011;27422;52.444;13.300;2023-03-16T05:10:50;5.88;;;2.60;;
41739;SDS011;27422;52.444;13.300;2023-03-16T05:13:15;6.35;;;2.42;;
41739;SDS011;27422;52.444;13.300;2023-03-16T05:15:41;5.18;;;2.80;;
41739;SDS011;27422;52.444;13.300;2023-03-16T05:18:06;7.28;;;2.67;;
41739;SDS011;27422;52.444;13.300;2023-03-16T05:22:59;6.75;;;2.50;;
41739;SDS011;27422;52.444;13.300;2023-03-16T05:25:25;7.55;;;2.95;;
41739;SDS011;27422;52.444;13.300;2023-03-16T05:27:51;7.80;;;2.47;;
41739;SDS011;27422;52.444;13.300;2023-03-16T05:30:18;5.97;;;2.38;;
41739;SDS011;27422;52.444;13.300;2023-03-16T05:32:44;6.68;;;2.70;;
41739;SDS011;27422;52.444;13.300;2023-03-16T05:35:10;4.03;;;2.15;;
41739;SDS011;27422;52.444;13.300;2023-03-16T05:40:04;6.45;;;2.38;;
41739;SDS011;27422;52.444;13.300;2023-03-16T05:42:41;8.05;;;2.17;;
41739;SDS011;27422;52.444;13.300;2023-03-16T05:45:10;7.97;;;2.30;;
41739;SDS011;27422;52.444;13.300;2023-03-16T05:47:36;5.83;;;2.30;;
41739;SDS011;27422;52.444;13.300;2023-03-16T05:50:03;6.75;;;2.22;;
41739;SDS011;27422;52.444;13.300;2023-03-16T05:52:29;9.45;;;2.75;;
41739;SDS011;27422;52.444;13.300;2023-03-16T05:54:55;7.75;;;2.75;;
41739;SDS011;27422;52.444;13.300;2023-03-16T05:57:20;5.57;;;2.58;;
41739;SDS011;27422;52.444;13.300;2023-03-16T05:59:46;8.88;;;3.00;;
41739;SDS011;27422;52.444;13.300;2023-03-16T06:02:12;7.60;;;2.80;;
41739;SDS011;27422;52.444;13.300;2023-03-16T06:04:38;9.20;;;2.13;;
41739;SDS011;27422;52.444;13.300;2023-03-16T06:07:03;7.43;;;2.13;;
41739;SDS011;27422;52.444;13.300;2023-03-16T06:09:29;5.07;;;2.20;;
41739;SDS011;27422;52.444;13.300;2023-03-16T06:11:54;8.00;;;3.10;;
41739;SDS011;27422;52.444;13.300;2023-03-16T06:14:20;5.95;;;2.50;;
41739;SDS011;27422;52.444;13.300;2023-03-16T06:16:47;8.83;;;3.07;;
41739;SDS011;27422;52.444;13.300;2023-03-16T06:19:12;5.25;;;2.20;;
41739;SDS011;27422;52.444;13.300;2023-03-16T06:21:38;5.95;;;2.47;;
41739;SDS011;27422;52.444;13.300;2023-03-16T06:24:03;4.57;;;2.05;;
41739;SDS011;27422;52.444;13.300;2023-03-16T06:26:31;8.23;;;2.55;;
41739;SDS011;27422;52.444;13.300;2023-03-16T06:28:57;7.40;;;2.33;;
41739;SDS011;27422;52.444;13.300;2023-03-16T06:31:22;7.88;;;2.90;;
41739;SDS011;27422;52.444;13.300;2023-03-16T06:33:48;5.70;;;2.40;;
41739;SDS011;27422;52.444;13.300;2023-03-16T06:36:16;4.70;;;2.53;;
41739;SDS011;27422;52.444;13.300;2023-03-16T06:38:42;9.35;;;3.90;;
41739;SDS011;27422;52.444;13.300;2023-03-16T06:41:08;9.38;;;3.55;;
41739;SDS011;27422;52.444;13.300;2023-03-16T06:43:33;9.00;;;3.35;;
41739;SDS011;27422;52.444;13.300;2023-03-16T06:45:59;5.88;;;2.38;;
41739;SDS011;27422;52.444;13.300;2023-03-16T06:48:25;5.72;;;2.58;;
41739;SDS011;27422;52.444;13.300;2023-03-16T06:50:52;12.55;;;2.97;;
41739;SDS011;27422;52.444;13.300;2023-03-16T06:53:18;8.90;;;3.00;;
41739;SDS011;27422;52.444;13.300;2023-03-16T06:55:43;5.93;;;2.67;;
41739;SDS011;27422;52.444;13.300;2023-03-16T06:58:09;7.53;;;2.67;;
41739;SDS011;27422;52.444;13.300;2023-03-16T07:00:35;6.53;;;2.78;;
41739;SDS011;27422;52.444;13.300;2023-03-16T07:03:02;5.05;;;2.20;;
41739;SDS011;27422;52.444;13.300;2023-03-16T07:05:28;11.13;;;2.80;;
41739;SDS011;27422;52.444;13.300;2023-03-16T07:07:53;8.00;;;2.97;;
41739;SDS011;27422;52.444;13.300;2023-03-16T07:10:20;4.90;;;2.05;;
41739;SDS011;27422;52.444;13.300;2023-03-16T07:12:46;6.85;;;1.80;;
41739;SDS011;27422;52.444;13.300;2023-03-16T07:15:12;7.50;;;2.50;;
41739;SDS011;27422;52.444;13.300;2023-03-16T07:17:38;5.32;;;2.33;;
41739;SDS011;27422;52.444;13.300;2023-03-16T07:20:04;9.13;;;2.67;;
41739;SDS011;27422;52.444;13.300;2023-03-16T07:22:34;6.03;;;2.08;;
41739;SDS011;27422;52.444;13.300;2023-03-16T07:24:59;6.65;;;2.05;;
41739;SDS011;27422;52.444;13.300;2023-03-16T07:27:25;5.78;;;1.80;;
41739;SDS011;27422;52.444;13.300;2023-03-16T07:29:51;7.47;;;2.05;;
41739;SDS011;27422;52.444;13.300;2023-03-16T07:32:17;11.55;;;2.22;;
41739;SDS011;27422;52.444;13.300;2023-03-16T07:34:42;10.27;;;1.80;;
41739;SDS011;27422;52.444;13.300;2023-03-16T07:37:08;2.75;;;1.20;;
41739;SDS011;27422;52.444;13.300;2023-03-16T07:39:34;5.32;;;1.55;;
41739;SDS011;27422;52.444;13.300;2023-03-16T07:42:00;6.07;;;1.38;;
41739;SDS011;27422;52.444;13.300;2023-03-16T07:44:27;6.70;;;1.60;;
41739;SDS011;27422;52.444;13.300;2023-03-16T07:46:52;3.83;;;1.40;;
41739;SDS011;27422;52.444;13.300;2023-03-16T07:49:17;7.13;;;1.73;;
41739;SDS011;27422;52.444;13.300;2023-03-16T07:51:43;4.05;;;1.35;;
41739;SDS011;27422;52.444;13.300;2023-03-16T07:54:09;5.93;;;1.63;;
41739;SDS011;27422;52.444;13.300;2023-03-16T07:56:34;6.45;;;1.42;;
41739;SDS011;27422;52.444;13.300;2023-03-16T07:59:00;6.47;;;1.73;;
41739;SDS011;27422;52.444;13.300;2023-03-16T08:01:26;7.15;;;1.85;;
41739;SDS011;27422;52.444;13.300;2023-03-16T08:03:51;6.28;;;1.42;;
41739;SDS011;27422;52.444;13.300;2023-03-16T08:06:17;5.45;;;1.27;;
41739;SDS011;27422;52.444;13.300;2023-03-16T08:08:43;3.65;;;1.10;;
41739;SDS011;27422;52.444;13.300;2023-03-16T08:11:08;8.70;;;1.98;;
41739;SDS011;27422;52.444;13.300;2023-03-16T08:13:34;4.97;;;1.25;;
41739;SDS011;27422;52.444;13.300;2023-03-16T08:15:59;5.30;;;1.45;;
41739;SDS011;27422;52.444;13.300;2023-03-16T08:18:25;4.25;;;1.20;;
41739;SDS011;27422;52.444;13.300;2023-03-16T08:20:52;4.28;;;1.08;;
41739;SDS011;27422;52.444;13.300;2023-03-16T08:23:18;3.92;;;0.90;;
41739;SDS011;27422;52.444;13.300;2023-03-16T08:25:43;4.65;;;0.95;;
41739;SDS011;27422;52.444;13.300;2023-03-16T08:28:09;6.10;;;1.13;;
41739;SDS011;27422;52.444;13.300;2023-03-16T08:30:35;5.50;;;1.25;;
41739;SDS011;27422;52.444;13.300;2023-03-16T08:33:01;2.42;;;0.80;;
41739;SDS011;27422;52.444;13.300;2023-03-16T08:35:27;4.63;;;1.00;;
41739;SDS011;27422;52.444;13.300;2023-03-16T08:37:54;5.65;;;0.98;;
41739;SDS011;27422;52.444;13.300;2023-03-16T08:40:21;5.10;;;0.93;;
41739;SDS011;27422;52.444;13.300;2023-03-16T08:42:47;4.13;;;1.40;;
41739;SDS011;27422;52.444;13.300;2023-03-16T08:45:15;3.97;;;0.70;;
41739;SDS011;27422;52.444;13.300;2023-03-16T08:47:41;3.75;;;1.00;;
41739;SDS011;27422;52.444;13.300;2023-03-16T08:50:07;3.75;;;1.00;;
41739;SDS011;27422;52.444;13.300;2023-03-16T08:52:35;2.72;;;0.82;;
41739;SDS011;27422;52.444;13.300;2023-03-16T08:55:02;3.83;;;1.00;;
41739;SDS011;27422;52.444;13.300;2023-03-16T08:57:29;4.10;;;1.05;;
41739;SDS011;27422;52.444;13.300;2023-03-16T08:59:56;4.45;;;1.10;;
41739;SDS011;27422;52.444;13.300;2023-03-16T09:02:23;2.90;;;1.17;;
41739;SDS011;27422;52.444;13.300;2023-03-16T09:07:16;6.90;;;1.33;;
41739;SDS011;27422;52.444;13.300;2023-03-16T09:09:43;3.45;;;0.90;;
41739;SDS011;27422;52.444;13.300;2023-03-16T09:12:09;5.53;;;1.20;;
41739;SDS011;27422;52.444;13.300;2023-03-16T09:14:35;4.13;;;1.02;;
41739;SDS011;27422;52.444;13.300;2023-03-16T09:17:02;3.28;;;1.00;;
41739;SDS011;27422;52.444;13.300;2023-03-16T09:19:28;3.13;;;0.90;;
41739;SDS011;27422;52.444;13.300;2023-03-16T09:21:53;5.13;;;1.10;;
41739;SDS011;27422;52.444;13.300;2023-03-16T09:24:18;3.88;;;1.00;;
41739;SDS011;27422;52.444;13.300;2023-03-16T09:26:44;4.93;;;1.17;;
41739;SDS011;27422;52.444;13.300;2023-03-16T09:29:11;3.35;;;0.80;;
41739;SDS011;27422;52.444;13.300;2023-03-16T09:31:36;2.83;;;0.70;;
41739;SDS011;27422;52.444;13.300;2023-03-16T09:34:02;4.22;;;1.15;;
41739;SDS011;27422;52.444;13.300;2023-03-16T09:36:28;5.97;;;1.35;;
41739;SDS011;27422;52.444;13.300;2023-03-16T09:38:54;4.22;;;1.02;;
41739;SDS011;27422;52.444;13.300;2023-03-16T09:44:14;4.85;;;1.35;;
41739;SDS011;27422;52.444;13.300;2023-03-16T09:46:42;5.57;;;1.17;;
41739;SDS011;27422;52.444;13.300;2023-03-16T09:49:13;4.03;;;1.10;;
41739;SDS011;27422;52.444;13.300;2023-03-16T09:57:30;4.82;;;1.13;;
41739;SDS011;27422;52.444;13.300;2023-03-16T10:05:51;4.15;;;1.00;;
41739;SDS011;27422;52.444;13.300;2023-03-16T10:08:21;3.20;;;1.13;;
41739;SDS011;27422;52.444;13.300;2023-03-16T10:16:07;5.40;;;1.15;;
41739;SDS011;27422;52.444;13.300;2023-03-16T10:18:56;7.80;;;1.10;;
41739;SDS011;27422;52.444;13.300;2023-03-16T10:21:39;6.50;;;1.38;;
41739;SDS011;27422;52.444;13.300;2023-03-16T10:24:33;5.03;;;1.03;;
41739;SDS011;27422;52.444;13.300;2023-03-16T10:27:01;4.22;;;0.90;;
41739;SDS011;27422;52.444;13.300;2023-03-16T10:29:29;3.53;;;1.27;;
41739;SDS011;27422;52.444;13.300;2023-03-16T10:32:10;2.63;;;0.75;;
41739;SDS011;27422;52.444;13.300;2023-03-16T10:34:37;4.55;;;0.90;;
41739;SDS011;27422;52.444;13.300;2023-03-16T10:37:03;3.80;;;1.00;;
41739;SDS011;27422;52.444;13.300;2023-03-16T10:39:38;2.70;;;0.93;;
41739;SDS011;27422;52.444;13.300;2023-03-16T10:44:42;6.95;;;1.00;;
41739;SDS011;27422;52.444;13.300;2023-03-16T10:47:16;3.17;;;0.75;;
41739;SDS011;27422;52.444;13.300;2023-03-16T10:49:49;3.85;;;0.73;;
41739;SDS011;27422;52.444;13.300;2023-03-16T10:55:10;3.20;;;0.70;;
41739;SDS011;27422;52.444;13.300;2023-03-16T10:57:53;3.17;;;0.82;;
41739;SDS011;27422;52.444;13.300;2023-03-16T11:02:49;2.25;;;0.60;;
41739;SDS011;27422;52.444;13.300;2023-03-16T11:07:50;2.55;;;0.60;;
41739;SDS011;27422;52.444;13.300;2023-03-16T11:10:23;2.08;;;0.80;;
41739;SDS011;27422;52.444;13.300;2023-03-16T11:13:00;2.92;;;0.50;;
41739;SDS011;27422;52.444;13.300;2023-03-16T11:15:27;2.78;;;0.60;;
41739;SDS011;27422;52.444;13.300;2023-03-16T11:18:01;3.05;;;0.75;;
41739;SDS011;27422;52.444;13.300;2023-03-16T11:20:28;2.95;;;0.50;;
41739;SDS011;27422;52.444;13.300;2023-03-16T11:22:57;6.25;;;1.00;;
41739;SDS011;27422;52.444;13.300;2023-03-16T11:25:28;3.60;;;0.73;;
41739;SDS011;27422;52.444;13.300;2023-03-16T11:33:26;1.73;;;0.73;;
41739;SDS011;27422;52.444;13.300;2023-03-16T11:41:18;4.18;;;1.00;;
41739;SDS011;27422;52.444;13.300;2023-03-16T11:43:59;2.55;;;0.63;;
41739;SDS011;27422;52.444;13.300;2023-03-16T12:00:19;3.40;;;0.70;;
41739;SDS011;27422;52.444;13.300;2023-03-16T12:05:57;2.85;;;0.70;;
41739;SDS011;27422;52.444;13.300;2023-03-16T12:16:07;5.25;;;0.65;;
41739;SDS011;27422;52.444;13.300;2023-03-16T12:18:50;2.00;;;0.50;;
41739;SDS011;27422;52.444;13.300;2023-03-16T12:21:31;2.70;;;0.70;;
41739;SDS011;27422;52.444;13.300;2023-03-16T12:26:28;2.80;;;0.60;;
41739;SDS011;27422;52.444;13.300;2023-03-16T12:28:56;3.50;;;0.70;;
41739;SDS011;27422;52.444;13.300;2023-03-16T12:36:47;2.13;;;0.70;;
41739;SDS011;27422;52.444;13.300;2023-03-16T12:44:46;3.28;;;0.70;;
41739;SDS011;27422;52.444;13.300;2023-03-16T12:47:36;4.70;;;0.70;;
41739;SDS011;27422;52.444;13.300;2023-03-16T12:50:10;2.85;;;0.60;;
41739;SDS011;27422;52.444;13.300;2023-03-16T12:52:38;3.08;;;0.68;;
41739;SDS011;27422;52.444;13.300;2023-03-16T12:55:15;1.73;;;0.57;;
41739;SDS011;27422;52.444;13.300;2023-03-16T12:57:43;2.15;;;0.60;;
41739;SDS011;27422;52.444;13.300;2023-03-16T13:00:12;2.80;;;1.00;;
41739;SDS011;27422;52.444;13.300;2023-03-16T13:02:43;3.03;;;0.70;;
41739;SDS011;27422;52.444;13.300;2023-03-16T13:05:13;3.03;;;0.63;;
41739;SDS011;27422;52.444;13.300;2023-03-16T13:07:47;1.45;;;0.50;;
41739;SDS011;27422;52.444;13.300;2023-03-16T13:10:14;2.25;;;0.50;;
41739;SDS011;27422;52.444;13.300;2023-03-16T13:12:44;2.92;;;0.68;;
41739;SDS011;27422;52.444;13.300;2023-03-16T13:17:44;2.17;;;0.77;;
41739;SDS011;27422;52.444;13.300;2023-03-16T13:20:27;1.45;;;0.50;;
41739;SDS011;27422;52.444;13.300;2023-03-16T13:23:08;2.95;;;0.80;;
41739;SDS011;27422;52.444;13.300;2023-03-16T13:28:59;2.50;;;0.65;;
41739;SDS011;27422;52.444;13.300;2023-03-16T13:31:35;3.97;;;1.17;;
41739;SDS011;27422;52.444;13.300;2023-03-16T13:34:01;2.85;;;0.70;;
41739;SDS011;27422;52.444;13.300;2023-03-16T13:36:31;2.40;;;0.60;;
41739;SDS011;27422;52.444;13.300;2023-03-16T13:39:02;2.08;;;0.50;;
41739;SDS011;27422;52.444;13.300;2023-03-16T13:41:30;3.20;;;0.70;;
41739;SDS011;27422;52.444;13.300;2023-03-16T13:43:56;2.53;;;0.50;;
41739;SDS011;27422;52.444;13.300;2023-03-16T13:46:26;1.45;;;0.45;;
41739;SDS011;27422;52.444;13.300;2023-03-16T13:48:55;2.47;;;0.52;;
41739;SDS011;27422;52.444;13.300;2023-03-16T13:51:22;1.20;;;0.40;;
41739;SDS011;27422;52.444;13.300;2023-03-16T13:53:48;2.90;;;1.02;;
41739;SDS011;27422;52.444;13.300;2023-03-16T13:56:15;1.02;;;0.50;;
41739;SDS011;27422;52.444;13.300;2023-03-16T13:58:46;4.93;;;0.63;;
41739;SDS011;27422;52.444;13.300;2023-03-16T14:01:27;2.20;;;0.60;;
41739;SDS011;27422;52.444;13.300;2023-03-16T14:03:54;2.17;;;0.55;;
41739;SDS011;27422;52.444;13.300;2023-03-16T14:06:26;1.77;;;0.40;;
41739;SDS011;27422;52.444;13.300;2023-03-16T14:08:55;1.92;;;0.80;;
41739;SDS011;27422;52.444;13.300;2023-03-16T14:11:25;1.98;;;0.73;;
41739;SDS011;27422;52.444;13.300;2023-03-16T14:13:53;2.53;;;0.80;;
41739;SDS011;27422;52.444;13.300;2023-03-16T14:16:21;1.73;;;0.55;;
41739;SDS011;27422;52.444;13.300;2023-03-16T14:18:52;3.67;;;0.70;;
41739;SDS011;27422;52.444;13.300;2023-03-16T14:21:24;3.65;;;0.80;;
41739;SDS011;27422;52.444;13.300;2023-03-16T14:23:51;1.75;;;0.50;;
41739;SDS011;27422;52.444;13.300;2023-03-16T14:26:37;2.47;;;0.75;;
41739;SDS011;27422;52.444;13.300;2023-03-16T14:29:13;2.72;;;0.75;;
41739;SDS011;27422;52.444;13.300;2023-03-16T14:31:54;2.85;;;0.75;;
41739;SDS011;27422;52.444;13.300;2023-03-16T14:34:25;2.72;;;0.80;;
41739;SDS011;27422;52.444;13.300;2023-03-16T14:36:52;3.25;;;0.60;;
41739;SDS011;27422;52.444;13.300;2023-03-16T14:39:32;1.50;;;0.60;;
41739;SDS011;27422;52.444;13.300;2023-03-16T14:42:00;2.10;;;0.60;;
41739;SDS011;27422;52.444;13.300;2023-03-16T14:44:28;3.88;;;0.60;;
41739;SDS011;27422;52.444;13.300;2023-03-16T14:46:59;4.72;;;0.75;;
41739;SDS011;27422;52.444;13.300;2023-03-16T14:49:26;1.55;;;0.65;;
41739;SDS011;27422;52.444;13.300;2023-03-16T14:54:50;2.92;;;0.60;;
41739;SDS011;27422;52.444;13.300;2023-03-16T14:57:16;2.10;;;0.57;;
41739;SDS011;27422;52.444;13.300;2023-03-16T14:59:43;2.20;;;0.50;;
41739;SDS011;27422;52.444;13.300;2023-03-16T15:02:14;1.92;;;0.60;;
41739;SDS011;27422;52.444;13.300;2023-03-16T15:04:41;1.65;;;0.52;;
41739;SDS011;27422;52.444;13.300;2023-03-16T15:07:23;2.40;;;0.63;;
41739;SDS011;27422;52.444;13.300;2023-03-16T15:09:53;1.48;;;0.40;;
41739;SDS011;27422;52.444;13.300;2023-03-16T15:12:22;2.05;;;0.55;;
41739;SDS011;27422;52.444;13.300;2023-03-16T15:17:34;1.30;;;0.50;;
41739;SDS011;27422;52.444;13.300;2023-03-16T15:20:00;2.78;;;0.45;;
41739;SDS011;27422;52.444;13.300;2023-03-16T15:22:34;3.13;;;0.70;;
41739;SDS011;27422;52.444;13.300;2023-03-16T15:25:17;2.40;;;0.45;;
41739;SDS011;27422;52.444;13.300;2023-03-16T15:27:43;2.00;;;0.50;;
41739;SDS011;27422;52.444;13.300;2023-03-16T15:30:14;2.35;;;0.60;;
41739;SDS011;27422;52.444;13.300;2023-03-16T15:32:46;1.73;;;0.45;;
41739;SDS011;27422;52.444;13.300;2023-03-16T15:35:12;1.60;;;0.40;;
41739;SDS011;27422;52.444;13.300;2023-03-16T15:37:37;1.80;;;0.63;;
41739;SDS011;27422;52.444;13.300;2023-03-16T15:40:36;2.28;;;0.50;;
41739;SDS011;27422;52.444;13.300;2023-03-16T15:42:55;1.92;;;0.50;;
41739;SDS011;27422;52.444;13.300;2023-03-16T15:45:22;1.98;;;0.43;;
41739;SDS011;27422;52.444;13.300;2023-03-16T15:47:48;1.63;;;0.50;;
41739;SDS011;27422;52.444;13.300;2023-03-16T15:50:15;1.57;;;0.50;;
41739;SDS011;27422;52.444;13.300;2023-03-16T15:52:45;2.65;;;0.55;;
41739;SDS011;27422;52.444;13.300;2023-03-16T15:55:16;2.05;;;0.60;;
41739;SDS011;27422;52.444;13.300;2023-03-16T15:58:16;1.33;;;0.50;;
41739;SDS011;27422;52.444;13.300;2023-03-16T16:00:44;3.10;;;0.63;;
41739;SDS011;27422;52.444;13.300;2023-03-16T16:03:12;2.42;;;0.60;;
41739;SDS011;27422;52.444;13.300;2023-03-16T16:05:39;2.97;;;0.68;;
41739;SDS011;27422;52.444;13.300;2023-03-16T16:08:04;2.17;;;0.80;;
41739;SDS011;27422;52.444;13.300;2023-03-16T16:10:30;2.90;;;0.55;;
41739;SDS011;27422;52.444;13.300;2023-03-16T16:12:57;3.90;;;0.57;;
41739;SDS011;27422;52.444;13.300;2023-03-16T16:15:29;2.30;;;0.60;;
41739;SDS011;27422;52.444;13.300;2023-03-16T16:17:59;2.60;;;0.70;;
41739;SDS011;27422;52.444;13.300;2023-03-16T16:20:26;2.45;;;0.50;;
41739;SDS011;27422;52.444;13.300;2023-03-16T16:22:54;5.78;;;0.90;;
41739;SDS011;27422;52.444;13.300;2023-03-16T16:25:24;3.47;;;0.70;;
41739;SDS011;27422;52.444;13.300;2023-03-16T16:27:51;1.75;;;0.50;;
41739;SDS011;27422;52.444;13.300;2023-03-16T16:32:45;2.35;;;0.50;;
41739;SDS011;27422;52.444;13.300;2023-03-16T16:35:12;2.40;;;0.50;;